sensor_id;sensor_type;location;lat;lon;timestamp;P1;durP1;ratioP1;P2;durP2;ratioP2
65684;SDS011;52405;50.844;-1.062;2023-03-01T00:01:14;11.90;;;6.78;;
65684;SDS011;52405;50.844;-1.062;2023-03-01T00:03:44;8.68;;;7.35;;
65684;SDS011;52405;50.844;-1.062;2023-03-01T00:06:10;12.20;;;8.02;;
65684;SDS011;52405;50.844;-1.062;2023-03-01T00:08:36;8.68;;;7.03;;
65684;SDS011;52405;50.844;-1.062;2023-03-01T00:13:35;9.02;;;7.32;;
65684;SDS011;52405;50.844;-1.062;2023-03-01T00:16:02;7.82;;;7.03;;
65684;SDS011;52405;50.844;-1.062;2023-03-01T00:18:28;8.93;;;7.10;;
65684;SDS011;52405;50.844;-1.062;2023-03-01T00:20:54;10.95;;;8.13;;
65684;SDS011;52405;50.844;-1.062;2023-03-01T00:23:21;9.65;;;7.20;;
65684;SDS011;52405;50.844;-1.062;2023-03-01T00:25:47;13.70;;;8.65;;
65684;SDS011;52405;50.844;-1.062;2023-03-01T00:28:15;13.23;;;8.93;;
65684;SDS011;52405;50.844;-1.062;2023-03-01T00:30:41;11.75;;;8.55;;
65684;SDS011;52405;50.844;-1.062;2023-03-01T00:33:07;11.32;;;8.75;;
65684;SDS011;52405;50.844;-1.062;2023-03-01T00:35:35;12.70;;;7.82;;
65684;SDS011;52405;50.844;-1.062;2023-03-01T00:38:01;11.45;;;7.60;;
65684;SDS011;52405;50.844;-1.062;2023-03-01T00:40:31;8.70;;;7.15;;
65684;SDS011;52405;50.844;-1.062;2023-03-01T00:42:58;11.30;;;9.00;;
65684;SDS011;52405;50.844;-1.062;2023-03-01T00:45:24;9.27;;;6.97;;
65684;SDS011;52405;50.844;-1.062;2023-03-01T00:47:50;11.38;;;8.25;;
65684;SDS011;52405;50.844;-1.062;2023-03-01T00:50:16;11.90;;;8.40;;
65684;SDS011;52405;50.844;-1.062;2023-03-01T00:52:42;10.20;;;7.28;;
65684;SDS011;52405;50.844;-1.062;2023-03-01T00:55:07;11.10;;;8.43;;
65684;SDS011;52405;50.844;-1.062;2023-03-01T00:57:33;10.63;;;7.85;;
65684;SDS011;52405;50.844;-1.062;2023-03-01T01:00:02;13.57;;;8.57;;
65684;SDS011;52405;50.844;-1.062;2023-03-01T01:02:31;10.30;;;7.13;;
65684;SDS011;52405;50.844;-1.062;2023-03-01T01:04:58;9.27;;;7.75;;
65684;SDS011;52405;50.844;-1.062;2023-03-01T01:07:23;12.85;;;8.43;;
65684;SDS011;52405;50.844;-1.062;2023-03-01T01:09:48;11.68;;;9.07;;
65684;SDS011;52405;50.844;-1.062;2023-03-01T01:12:16;13.93;;;9.18;;
65684;SDS011;52405;50.844;-1.062;2023-03-01T01:14:41;12.43;;;8.65;;
65684;SDS011;52405;50.844;-1.062;2023-03-01T01:17:09;10.70;;;8.48;;
65684;SDS011;52405;50.844;-1.062;2023-03-01T01:19:37;12.60;;;8.35;;
65684;SDS011;52405;50.844;-1.062;2023-03-01T01:22:05;11.82;;;9.63;;
65684;SDS011;52405;50.844;-1.062;2023-03-01T01:24:30;11.85;;;8.98;;
65684;SDS011;52405;50.844;-1.062;2023-03-01T01:26:56;11.80;;;9.27;;
65684;SDS011;52405;50.844;-1.062;2023-03-01T01:29:21;16.73;;;9.02;;
65684;SDS011;52405;50.844;-1.062;2023-03-01T01:31:49;11.27;;;8.88;;
65684;SDS011;52405;50.844;-1.062;2023-03-01T01:34:15;13.15;;;8.85;;
65684;SDS011;52405;50.844;-1.062;2023-03-01T01:36:50;11.88;;;9.63;;
65684;SDS011;52405;50.844;-1.062;2023-03-01T01:39:19;9.95;;;8.27;;
65684;SDS011;52405;50.844;-1.062;2023-03-01T01:41:45;14.13;;;9.05;;
65684;SDS011;52405;50.844;-1.062;2023-03-01T01:44:17;11.35;;;8.88;;
65684;SDS011;52405;50.844;-1.062;2023-03-01T01:46:47;11.65;;;9.02;;
65684;SDS011;52405;50.844;-1.062;2023-03-01T01:52:14;12.85;;;9.50;;
65684;SDS011;52405;50.844;-1.062;2023-03-01T01:57:40;15.75;;;10.75;;
65684;SDS011;52405;50.844;-1.062;2023-03-01T02:00:14;15.57;;;10.85;;
65684;SDS011;52405;50.844;-1.062;2023-03-01T02:02:42;15.93;;;9.95;;
65684;SDS011;52405;50.844;-1.062;2023-03-01T02:05:19;16.73;;;11.15;;
65684;SDS011;52405;50.844;-1.062;2023-03-01T02:07:54;14.48;;;10.38;;
65684;SDS011;52405;50.844;-1.062;2023-03-01T02:10:23;12.45;;;10.13;;
65684;SDS011;52405;50.844;-1.062;2023-03-01T02:12:54;13.75;;;10.65;;
65684;SDS011;52405;50.844;-1.062;2023-03-01T02:15:23;14.60;;;9.88;;
65684;SDS011;52405;50.844;-1.062;2023-03-01T02:17:49;13.25;;;10.07;;
65684;SDS011;52405;50.844;-1.062;2023-03-01T02:22:51;14.57;;;10.48;;
65684;SDS011;52405;50.844;-1.062;2023-03-01T02:26:01;13.63;;;10.32;;
65684;SDS011;52405;50.844;-1.062;2023-03-01T02:30:43;18.67;;;11.80;;
65684;SDS011;52405;50.844;-1.062;2023-03-01T02:33:31;15.02;;;11.80;;
65684;SDS011;52405;50.844;-1.062;2023-03-01T02:36:00;16.35;;;11.65;;
65684;SDS011;52405;50.844;-1.062;2023-03-01T02:38:29;15.48;;;11.35;;
65684;SDS011;52405;50.844;-1.062;2023-03-01T02:40:58;18.77;;;11.70;;
65684;SDS011;52405;50.844;-1.062;2023-03-01T02:43:26;15.27;;;11.30;;
65684;SDS011;52405;50.844;-1.062;2023-03-01T02:45:57;17.33;;;11.82;;
65684;SDS011;52405;50.844;-1.062;2023-03-01T02:48:37;16.48;;;12.07;;
65684;SDS011;52405;50.844;-1.062;2023-03-01T02:56:42;17.45;;;12.77;;
65684;SDS011;52405;50.844;-1.062;2023-03-01T02:59:09;17.77;;;13.38;;
65684;SDS011;52405;50.844;-1.062;2023-03-01T03:01:35;15.05;;;12.57;;
65684;SDS011;52405;50.844;-1.062;2023-03-01T03:04:05;16.13;;;12.77;;
65684;SDS011;52405;50.844;-1.062;2023-03-01T03:06:35;17.88;;;13.35;;
65684;SDS011;52405;50.844;-1.062;2023-03-01T03:09:01;17.40;;;11.80;;
65684;SDS011;52405;50.844;-1.062;2023-03-01T03:11:28;17.58;;;12.70;;
65684;SDS011;52405;50.844;-1.062;2023-03-01T03:13:53;16.92;;;12.52;;
65684;SDS011;52405;50.844;-1.062;2023-03-01T03:16:19;19.13;;;13.05;;
65684;SDS011;52405;50.844;-1.062;2023-03-01T03:18:47;17.77;;;13.35;;
65684;SDS011;52405;50.844;-1.062;2023-03-01T03:21:13;15.30;;;12.43;;
65684;SDS011;52405;50.844;-1.062;2023-03-01T03:23:39;20.52;;;13.63;;
65684;SDS011;52405;50.844;-1.062;2023-03-01T03:26:07;16.55;;;12.27;;
65684;SDS011;52405;50.844;-1.062;2023-03-01T03:28:38;18.42;;;13.10;;
65684;SDS011;52405;50.844;-1.062;2023-03-01T03:31:05;16.00;;;12.88;;
65684;SDS011;52405;50.844;-1.062;2023-03-01T03:33:34;19.95;;;13.27;;
65684;SDS011;52405;50.844;-1.062;2023-03-01T03:36:00;19.70;;;13.15;;
65684;SDS011;52405;50.844;-1.062;2023-03-01T03:38:25;18.52;;;13.32;;
65684;SDS011;52405;50.844;-1.062;2023-03-01T03:41:12;18.40;;;12.63;;
65684;SDS011;52405;50.844;-1.062;2023-03-01T03:43:38;18.60;;;12.95;;
65684;SDS011;52405;50.844;-1.062;2023-03-01T03:46:07;19.60;;;13.63;;
65684;SDS011;52405;50.844;-1.062;2023-03-01T03:48:38;18.70;;;13.00;;
65684;SDS011;52405;50.844;-1.062;2023-03-01T03:51:09;18.77;;;13.82;;
65684;SDS011;52405;50.844;-1.062;2023-03-01T03:53:36;17.67;;;13.40;;
65684;SDS011;52405;50.844;-1.062;2023-03-01T03:56:04;26.13;;;14.57;;
65684;SDS011;52405;50.844;-1.062;2023-03-01T03:58:30;17.58;;;14.38;;
65684;SDS011;52405;50.844;-1.062;2023-03-01T04:00:56;21.85;;;15.20;;
65684;SDS011;52405;50.844;-1.062;2023-03-01T04:03:26;20.80;;;13.82;;
65684;SDS011;52405;50.844;-1.062;2023-03-01T04:05:52;18.73;;;12.75;;
65684;SDS011;52405;50.844;-1.062;2023-03-01T04:08:19;18.38;;;13.63;;
65684;SDS011;52405;50.844;-1.062;2023-03-01T04:10:46;20.67;;;14.10;;
65684;SDS011;52405;50.844;-1.062;2023-03-01T04:13:15;20.88;;;14.15;;
65684;SDS011;52405;50.844;-1.062;2023-03-01T04:15:44;17.23;;;13.13;;
65684;SDS011;52405;50.844;-1.062;2023-03-01T04:18:18;17.67;;;13.35;;
65684;SDS011;52405;50.844;-1.062;2023-03-01T04:20:44;24.20;;;14.07;;
65684;SDS011;52405;50.844;-1.062;2023-03-01T04:28:27;19.38;;;13.80;;
65684;SDS011;52405;50.844;-1.062;2023-03-01T04:30:55;18.83;;;14.70;;
65684;SDS011;52405;50.844;-1.062;2023-03-01T04:33:22;22.45;;;14.35;;
65684;SDS011;52405;50.844;-1.062;2023-03-01T04:35:49;24.30;;;13.50;;
65684;SDS011;52405;50.844;-1.062;2023-03-01T04:38:16;19.15;;;15.35;;
65684;SDS011;52405;50.844;-1.062;2023-03-01T04:40:42;23.15;;;14.82;;
65684;SDS011;52405;50.844;-1.062;2023-03-01T04:43:08;23.30;;;14.98;;
65684;SDS011;52405;50.844;-1.062;2023-03-01T04:45:35;18.10;;;13.95;;
65684;SDS011;52405;50.844;-1.062;2023-03-01T04:48:01;18.50;;;13.45;;
65684;SDS011;52405;50.844;-1.062;2023-03-01T04:50:29;21.15;;;13.48;;
65684;SDS011;52405;50.844;-1.062;2023-03-01T04:52:55;21.02;;;14.52;;
65684;SDS011;52405;50.844;-1.062;2023-03-01T04:55:24;20.73;;;14.80;;
65684;SDS011;52405;50.844;-1.062;2023-03-01T04:57:53;19.33;;;13.85;;
65684;SDS011;52405;50.844;-1.062;2023-03-01T05:00:19;20.60;;;14.02;;
65684;SDS011;52405;50.844;-1.062;2023-03-01T05:02:52;19.40;;;13.55;;
65684;SDS011;52405;50.844;-1.062;2023-03-01T05:05:26;19.70;;;13.68;;
65684;SDS011;52405;50.844;-1.062;2023-03-01T05:07:53;17.38;;;13.23;;
65684;SDS011;52405;50.844;-1.062;2023-03-01T05:10:20;21.35;;;13.65;;
65684;SDS011;52405;50.844;-1.062;2023-03-01T05:12:46;18.10;;;12.00;;
65684;SDS011;52405;50.844;-1.062;2023-03-01T05:15:11;16.27;;;12.25;;
65684;SDS011;52405;50.844;-1.062;2023-03-01T05:17:39;21.35;;;13.23;;
65684;SDS011;52405;50.844;-1.062;2023-03-01T05:20:04;17.40;;;12.38;;
65684;SDS011;52405;50.844;-1.062;2023-03-01T05:22:36;20.13;;;12.15;;
65684;SDS011;52405;50.844;-1.062;2023-03-01T05:25:02;17.23;;;11.57;;
65684;SDS011;52405;50.844;-1.062;2023-03-01T05:27:32;18.17;;;11.60;;
65684;SDS011;52405;50.844;-1.062;2023-03-01T05:30:01;15.98;;;12.00;;
65684;SDS011;52405;50.844;-1.062;2023-03-01T05:32:38;19.23;;;13.15;;
65684;SDS011;52405;50.844;-1.062;2023-03-01T05:35:08;18.83;;;11.85;;
65684;SDS011;52405;50.844;-1.062;2023-03-01T05:37:33;17.10;;;11.65;;
65684;SDS011;52405;50.844;-1.062;2023-03-01T05:40:00;17.75;;;12.05;;
65684;SDS011;52405;50.844;-1.062;2023-03-01T05:42:26;21.83;;;13.32;;
65684;SDS011;52405;50.844;-1.062;2023-03-01T05:44:51;17.35;;;11.43;;
65684;SDS011;52405;50.844;-1.062;2023-03-01T05:47:19;16.95;;;11.45;;
65684;SDS011;52405;50.844;-1.062;2023-03-01T05:49:46;20.52;;;13.32;;
65684;SDS011;52405;50.844;-1.062;2023-03-01T05:52:15;19.15;;;12.50;;
65684;SDS011;52405;50.844;-1.062;2023-03-01T05:54:40;17.77;;;12.35;;
65684;SDS011;52405;50.844;-1.062;2023-03-01T05:57:06;43.65;;;12.68;;
65684;SDS011;52405;50.844;-1.062;2023-03-01T05:59:31;17.98;;;12.35;;
65684;SDS011;52405;50.844;-1.062;2023-03-01T06:01:56;16.25;;;11.10;;
65684;SDS011;52405;50.844;-1.062;2023-03-01T06:04:26;15.27;;;12.05;;
65684;SDS011;52405;50.844;-1.062;2023-03-01T06:06:52;16.00;;;12.15;;
65684;SDS011;52405;50.844;-1.062;2023-03-01T06:09:17;15.32;;;11.30;;
65684;SDS011;52405;50.844;-1.062;2023-03-01T06:11:43;16.92;;;12.65;;
65684;SDS011;52405;50.844;-1.062;2023-03-01T06:14:08;18.27;;;10.73;;
65684;SDS011;52405;50.844;-1.062;2023-03-01T06:16:35;17.23;;;10.68;;
65684;SDS011;52405;50.844;-1.062;2023-03-01T06:19:03;14.32;;;10.68;;
65684;SDS011;52405;50.844;-1.062;2023-03-01T06:21:31;17.58;;;11.45;;
65684;SDS011;52405;50.844;-1.062;2023-03-01T06:23:57;15.07;;;10.88;;
65684;SDS011;52405;50.844;-1.062;2023-03-01T06:26:22;17.30;;;12.63;;
65684;SDS011;52405;50.844;-1.062;2023-03-01T06:28:48;15.80;;;11.00;;
65684;SDS011;52405;50.844;-1.062;2023-03-01T06:31:16;18.85;;;11.52;;
65684;SDS011;52405;50.844;-1.062;2023-03-01T06:33:41;16.58;;;11.23;;
65684;SDS011;52405;50.844;-1.062;2023-03-01T06:36:07;16.45;;;12.45;;
65684;SDS011;52405;50.844;-1.062;2023-03-01T06:38:33;14.63;;;10.98;;
65684;SDS011;52405;50.844;-1.062;2023-03-01T06:40:58;15.98;;;10.73;;
65684;SDS011;52405;50.844;-1.062;2023-03-01T06:43:24;15.27;;;11.32;;
65684;SDS011;52405;50.844;-1.062;2023-03-01T06:45:49;18.17;;;10.70;;
65684;SDS011;52405;50.844;-1.062;2023-03-01T06:48:17;13.43;;;9.50;;
65684;SDS011;52405;50.844;-1.062;2023-03-01T06:50:42;15.75;;;10.35;;
65684;SDS011;52405;50.844;-1.062;2023-03-01T06:53:09;13.88;;;9.10;;
65684;SDS011;52405;50.844;-1.062;2023-03-01T06:55:34;14.13;;;9.95;;
65684;SDS011;52405;50.844;-1.062;2023-03-01T06:58:01;15.13;;;8.23;;
65684;SDS011;52405;50.844;-1.062;2023-03-01T07:00:30;11.88;;;9.18;;
65684;SDS011;52405;50.844;-1.062;2023-03-01T07:02:58;15.02;;;9.15;;
65684;SDS011;52405;50.844;-1.062;2023-03-01T07:05:27;11.38;;;8.52;;
65684;SDS011;52405;50.844;-1.062;2023-03-01T07:07:55;10.98;;;7.75;;
65684;SDS011;52405;50.844;-1.062;2023-03-01T07:10:21;11.77;;;7.38;;
65684;SDS011;52405;50.844;-1.062;2023-03-01T07:12:46;10.82;;;7.63;;
65684;SDS011;52405;50.844;-1.062;2023-03-01T07:15:12;9.82;;;7.47;;
65684;SDS011;52405;50.844;-1.062;2023-03-01T07:17:38;10.13;;;6.65;;
65684;SDS011;52405;50.844;-1.062;2023-03-01T07:20:09;12.48;;;7.05;;
65684;SDS011;52405;50.844;-1.062;2023-03-01T07:22:35;10.68;;;6.65;;
65684;SDS011;52405;50.844;-1.062;2023-03-01T07:25:01;6.93;;;5.32;;
65684;SDS011;52405;50.844;-1.062;2023-03-01T07:27:28;10.85;;;6.50;;
65684;SDS011;52405;50.844;-1.062;2023-03-01T07:29:56;6.40;;;5.65;;
65684;SDS011;52405;50.844;-1.062;2023-03-01T07:32:21;7.57;;;5.20;;
65684;SDS011;52405;50.844;-1.062;2023-03-01T07:34:47;9.55;;;5.18;;
65684;SDS011;52405;50.844;-1.062;2023-03-01T07:37:16;6.75;;;5.85;;
65684;SDS011;52405;50.844;-1.062;2023-03-01T07:39:41;6.10;;;4.95;;
65684;SDS011;52405;50.844;-1.062;2023-03-01T07:42:11;6.50;;;5.20;;
65684;SDS011;52405;50.844;-1.062;2023-03-01T07:44:39;6.55;;;4.57;;
65684;SDS011;52405;50.844;-1.062;2023-03-01T07:47:04;8.13;;;5.63;;
65684;SDS011;52405;50.844;-1.062;2023-03-01T07:49:30;18.20;;;8.18;;
65684;SDS011;52405;50.844;-1.062;2023-03-01T07:51:55;7.72;;;5.22;;
65684;SDS011;52405;50.844;-1.062;2023-03-01T07:54:23;27.40;;;11.20;;
65684;SDS011;52405;50.844;-1.062;2023-03-01T07:56:49;12.55;;;5.93;;
65684;SDS011;52405;50.844;-1.062;2023-03-01T07:59:17;7.55;;;4.72;;
65684;SDS011;52405;50.844;-1.062;2023-03-01T08:01:44;5.95;;;4.40;;
65684;SDS011;52405;50.844;-1.062;2023-03-01T08:04:10;6.07;;;3.80;;
65684;SDS011;52405;50.844;-1.062;2023-03-01T08:06:35;11.88;;;5.65;;
65684;SDS011;52405;50.844;-1.062;2023-03-01T08:09:01;6.97;;;4.65;;
65684;SDS011;52405;50.844;-1.062;2023-03-01T08:11:31;8.88;;;4.90;;
65684;SDS011;52405;50.844;-1.062;2023-03-01T08:13:57;8.27;;;3.97;;
65684;SDS011;52405;50.844;-1.062;2023-03-01T08:16:22;3.50;;;3.10;;
65684;SDS011;52405;50.844;-1.062;2023-03-01T08:18:51;14.80;;;7.60;;
65684;SDS011;52405;50.844;-1.062;2023-03-01T08:21:17;17.83;;;7.28;;
65684;SDS011;52405;50.844;-1.062;2023-03-01T08:23:43;8.77;;;5.07;;
65684;SDS011;52405;50.844;-1.062;2023-03-01T08:26:10;6.13;;;3.13;;
65684;SDS011;52405;50.844;-1.062;2023-03-01T08:28:42;3.55;;;3.20;;
65684;SDS011;52405;50.844;-1.062;2023-03-01T08:33:46;8.18;;;4.30;;
65684;SDS011;52405;50.844;-1.062;2023-03-01T08:36:20;9.75;;;4.80;;
65684;SDS011;52405;50.844;-1.062;2023-03-01T08:38:49;3.30;;;3.00;;
65684;SDS011;52405;50.844;-1.062;2023-03-01T08:41:15;8.60;;;4.28;;
65684;SDS011;52405;50.844;-1.062;2023-03-01T08:43:40;12.50;;;4.18;;
65684;SDS011;52405;50.844;-1.062;2023-03-01T08:46:06;14.77;;;5.70;;
65684;SDS011;52405;50.844;-1.062;2023-03-01T08:48:32;13.77;;;5.60;;
65684;SDS011;52405;50.844;-1.062;2023-03-01T08:50:59;7.32;;;4.45;;
65684;SDS011;52405;50.844;-1.062;2023-03-01T08:53:32;9.02;;;5.38;;
65684;SDS011;52405;50.844;-1.062;2023-03-01T08:56:02;12.85;;;7.03;;
65684;SDS011;52405;50.844;-1.062;2023-03-01T08:58:31;7.75;;;4.32;;
65684;SDS011;52405;50.844;-1.062;2023-03-01T09:00:58;5.88;;;3.97;;
65684;SDS011;52405;50.844;-1.062;2023-03-01T09:03:28;8.18;;;4.60;;
65684;SDS011;52405;50.844;-1.062;2023-03-01T09:05:54;11.15;;;5.07;;
65684;SDS011;52405;50.844;-1.062;2023-03-01T09:08:27;11.95;;;5.07;;
65684;SDS011;52405;50.844;-1.062;2023-03-01T09:10:53;9.25;;;4.03;;
65684;SDS011;52405;50.844;-1.062;2023-03-01T09:13:21;11.05;;;3.63;;
65684;SDS011;52405;50.844;-1.062;2023-03-01T09:15:49;7.82;;;4.13;;
65684;SDS011;52405;50.844;-1.062;2023-03-01T09:18:15;9.45;;;5.00;;
65684;SDS011;52405;50.844;-1.062;2023-03-01T09:20:43;6.20;;;4.15;;
65684;SDS011;52405;50.844;-1.062;2023-03-01T09:23:11;8.23;;;4.25;;
65684;SDS011;52405;50.844;-1.062;2023-03-01T09:25:38;5.40;;;3.08;;
65684;SDS011;52405;50.844;-1.062;2023-03-01T09:28:04;4.15;;;3.05;;
65684;SDS011;52405;50.844;-1.062;2023-03-01T09:30:29;4.78;;;2.40;;
65684;SDS011;52405;50.844;-1.062;2023-03-01T09:32:56;4.03;;;2.50;;
65684;SDS011;52405;50.844;-1.062;2023-03-01T09:35:21;4.70;;;2.88;;
65684;SDS011;52405;50.844;-1.062;2023-03-01T09:37:48;2.47;;;2.28;;
65684;SDS011;52405;50.844;-1.062;2023-03-01T09:40:16;5.35;;;3.17;;
65684;SDS011;52405;50.844;-1.062;2023-03-01T09:42:52;4.75;;;2.63;;
65684;SDS011;52405;50.844;-1.062;2023-03-01T09:45:33;5.68;;;2.90;;
65684;SDS011;52405;50.844;-1.062;2023-03-01T09:48:00;2.58;;;2.10;;
65684;SDS011;52405;50.844;-1.062;2023-03-01T09:50:32;5.93;;;3.47;;
65684;SDS011;52405;50.844;-1.062;2023-03-01T09:53:02;4.38;;;2.63;;
65684;SDS011;52405;50.844;-1.062;2023-03-01T10:00:49;5.25;;;3.25;;
65684;SDS011;52405;50.844;-1.062;2023-03-01T10:05:52;6.90;;;4.45;;
65684;SDS011;52405;50.844;-1.062;2023-03-01T10:11:27;4.80;;;3.05;;
65684;SDS011;52405;50.844;-1.062;2023-03-01T10:14:06;7.07;;;2.83;;
65684;SDS011;52405;50.844;-1.062;2023-03-01T10:17:51;3.13;;;2.17;;
65684;SDS011;52405;50.844;-1.062;2023-03-01T10:20:01;3.58;;;2.17;;
65684;SDS011;52405;50.844;-1.062;2023-03-01T10:22:41;3.45;;;3.08;;
65684;SDS011;52405;50.844;-1.062;2023-03-01T10:25:08;4.22;;;2.78;;
65684;SDS011;52405;50.844;-1.062;2023-03-01T10:30:40;3.30;;;2.00;;
65684;SDS011;52405;50.844;-1.062;2023-03-01T10:33:14;7.05;;;2.65;;
65684;SDS011;52405;50.844;-1.062;2023-03-01T10:35:51;3.67;;;2.45;;
65684;SDS011;52405;50.844;-1.062;2023-03-01T10:38:17;2.67;;;1.77;;
65684;SDS011;52405;50.844;-1.062;2023-03-01T10:40:50;8.20;;;2.25;;
65684;SDS011;52405;50.844;-1.062;2023-03-01T10:43:15;5.60;;;2.63;;
65684;SDS011;52405;50.844;-1.062;2023-03-01T10:45:41;5.25;;;1.80;;
65684;SDS011;52405;50.844;-1.062;2023-03-01T10:58:29;3.97;;;1.60;;
65684;SDS011;52405;50.844;-1.062;2023-03-01T11:00:56;3.75;;;1.70;;
65684;SDS011;52405;50.844;-1.062;2023-03-01T11:06:01;3.40;;;1.75;;
65684;SDS011;52405;50.844;-1.062;2023-03-01T11:08:43;2.65;;;1.42;;
65684;SDS011;52405;50.844;-1.062;2023-03-01T11:13:54;4.95;;;0.80;;
65684;SDS011;52405;50.844;-1.062;2023-03-01T11:16:22;4.23;;;1.30;;
65684;SDS011;52405;50.844;-1.062;2023-03-01T11:18:59;2.00;;;0.70;;
65684;SDS011;52405;50.844;-1.062;2023-03-01T11:21:35;2.83;;;0.70;;
65684;SDS011;52405;50.844;-1.062;2023-03-01T11:24:04;2.67;;;1.15;;
65684;SDS011;52405;50.844;-1.062;2023-03-01T11:26:39;2.70;;;1.00;;
65684;SDS011;52405;50.844;-1.062;2023-03-01T11:29:11;3.50;;;1.00;;
65684;SDS011;52405;50.844;-1.062;2023-03-01T11:34:11;2.45;;;1.40;;
65684;SDS011;52405;50.844;-1.062;2023-03-01T11:36:42;1.83;;;1.10;;
65684;SDS011;52405;50.844;-1.062;2023-03-01T11:41:41;2.60;;;0.95;;
65684;SDS011;52405;50.844;-1.062;2023-03-01T11:44:21;3.30;;;2.22;;
65684;SDS011;52405;50.844;-1.062;2023-03-01T11:47:37;20.95;;;16.30;;
65684;SDS011;52405;50.844;-1.062;2023-03-01T12:06:26;6.43;;;2.25;;
65684;SDS011;52405;50.844;-1.062;2023-03-01T12:09:09;4.72;;;2.30;;
65684;SDS011;52405;50.844;-1.062;2023-03-01T12:12:01;4.53;;;2.35;;
65684;SDS011;52405;50.844;-1.062;2023-03-01T12:17:18;4.60;;;3.95;;
65684;SDS011;52405;50.844;-1.062;2023-03-01T12:22:56;18.13;;;10.85;;
65684;SDS011;52405;50.844;-1.062;2023-03-01T12:31:16;3.08;;;2.25;;
65684;SDS011;52405;50.844;-1.062;2023-03-01T12:50:54;5.03;;;3.30;;
65684;SDS011;52405;50.844;-1.062;2023-03-01T12:53:32;6.20;;;2.33;;
65684;SDS011;52405;50.844;-1.062;2023-03-01T12:56:02;2.95;;;1.80;;
65684;SDS011;52405;50.844;-1.062;2023-03-01T12:59:12;7.00;;;3.30;;
65684;SDS011;52405;50.844;-1.062;2023-03-01T13:01:48;7.32;;;6.47;;
65684;SDS011;52405;50.844;-1.062;2023-03-01T13:04:37;4.93;;;3.80;;
65684;SDS011;52405;50.844;-1.062;2023-03-01T13:13:24;1.48;;;1.05;;
65684;SDS011;52405;50.844;-1.062;2023-03-01T13:15:33;2.45;;;1.30;;
65684;SDS011;52405;50.844;-1.062;2023-03-01T13:18:04;1.83;;;0.90;;
65684;SDS011;52405;50.844;-1.062;2023-03-01T13:20:55;2.28;;;0.85;;
65684;SDS011;52405;50.844;-1.062;2023-03-01T13:28:35;3.33;;;2.20;;
65684;SDS011;52405;50.844;-1.062;2023-03-01T13:36:45;1.85;;;1.08;;
65684;SDS011;52405;50.844;-1.062;2023-03-01T13:39:03;2.17;;;1.42;;
65684;SDS011;52405;50.844;-1.062;2023-03-01T13:44:15;1.83;;;1.40;;
65684;SDS011;52405;50.844;-1.062;2023-03-01T13:49:36;1.77;;;1.42;;
65684;SDS011;52405;50.844;-1.062;2023-03-01T13:52:06;4.07;;;2.33;;
65684;SDS011;52405;50.844;-1.062;2023-03-01T13:54:48;6.03;;;1.85;;
65684;SDS011;52405;50.844;-1.062;2023-03-01T13:57:18;3.00;;;1.73;;
65684;SDS011;52405;50.844;-1.062;2023-03-01T14:04:40;1.83;;;1.50;;
65684;SDS011;52405;50.844;-1.062;2023-03-01T14:07:16;3.75;;;2.78;;
65684;SDS011;52405;50.844;-1.062;2023-03-01T14:09:48;3.25;;;2.67;;
65684;SDS011;52405;50.844;-1.062;2023-03-01T14:20:02;2.97;;;1.48;;
65684;SDS011;52405;50.844;-1.062;2023-03-01T14:22:36;5.88;;;2.83;;
65684;SDS011;52405;50.844;-1.062;2023-03-01T14:28:37;3.33;;;1.50;;
65684;SDS011;52405;50.844;-1.062;2023-03-01T14:31:29;4.80;;;2.83;;
65684;SDS011;52405;50.844;-1.062;2023-03-01T14:34:02;5.38;;;3.20;;
65684;SDS011;52405;50.844;-1.062;2023-03-01T14:36:33;2.20;;;1.77;;
65684;SDS011;52405;50.844;-1.062;2023-03-01T14:38:59;3.92;;;1.98;;
65684;SDS011;52405;50.844;-1.062;2023-03-01T14:41:29;3.42;;;1.60;;
65684;SDS011;52405;50.844;-1.062;2023-03-01T14:44:06;4.80;;;3.70;;
65684;SDS011;52405;50.844;-1.062;2023-03-01T14:46:38;10.57;;;5.13;;
65684;SDS011;52405;50.844;-1.062;2023-03-01T14:49:10;4.07;;;1.95;;
65684;SDS011;52405;50.844;-1.062;2023-03-01T14:51:40;5.53;;;3.88;;
65684;SDS011;52405;50.844;-1.062;2023-03-01T14:54:21;4.70;;;2.63;;
65684;SDS011;52405;50.844;-1.062;2023-03-01T14:56:47;4.18;;;2.72;;
65684;SDS011;52405;50.844;-1.062;2023-03-01T14:59:13;3.00;;;1.77;;
65684;SDS011;52405;50.844;-1.062;2023-03-01T15:01:39;10.18;;;6.00;;
65684;SDS011;52405;50.844;-1.062;2023-03-01T15:04:06;11.73;;;8.43;;
65684;SDS011;52405;50.844;-1.062;2023-03-01T15:06:37;17.05;;;10.50;;
65684;SDS011;52405;50.844;-1.062;2023-03-01T15:09:03;3.05;;;1.85;;
65684;SDS011;52405;50.844;-1.062;2023-03-01T15:11:36;3.60;;;1.40;;
65684;SDS011;52405;50.844;-1.062;2023-03-01T15:14:24;3.08;;;1.33;;
65684;SDS011;52405;50.844;-1.062;2023-03-01T15:17:15;8.18;;;5.15;;
65684;SDS011;52405;50.844;-1.062;2023-03-01T15:19:51;12.40;;;7.70;;
65684;SDS011;52405;50.844;-1.062;2023-03-01T15:22:17;5.78;;;2.53;;
65684;SDS011;52405;50.844;-1.062;2023-03-01T15:24:48;3.88;;;2.83;;
65684;SDS011;52405;50.844;-1.062;2023-03-01T15:27:16;2.58;;;2.00;;
65684;SDS011;52405;50.844;-1.062;2023-03-01T15:29:56;5.50;;;4.10;;
65684;SDS011;52405;50.844;-1.062;2023-03-01T15:32:26;7.40;;;3.25;;
65684;SDS011;52405;50.844;-1.062;2023-03-01T15:38:04;4.30;;;2.15;;
65684;SDS011;52405;50.844;-1.062;2023-03-01T15:40:51;1.58;;;1.48;;
65684;SDS011;52405;50.844;-1.062;2023-03-01T15:46:03;2.33;;;1.20;;
65684;SDS011;52405;50.844;-1.062;2023-03-01T15:48:29;3.05;;;1.65;;
65684;SDS011;52405;50.844;-1.062;2023-03-01T15:50:58;5.88;;;1.27;;
65684;SDS011;52405;50.844;-1.062;2023-03-01T15:53:24;3.97;;;1.55;;
65684;SDS011;52405;50.844;-1.062;2023-03-01T15:55:56;4.22;;;1.75;;
65684;SDS011;52405;50.844;-1.062;2023-03-01T15:58:23;1.67;;;1.17;;
65684;SDS011;52405;50.844;-1.062;2023-03-01T16:00:50;2.47;;;0.98;;
65684;SDS011;52405;50.844;-1.062;2023-03-01T16:03:21;3.53;;;1.65;;
65684;SDS011;52405;50.844;-1.062;2023-03-01T16:05:48;3.97;;;1.90;;
65684;SDS011;52405;50.844;-1.062;2023-03-01T16:08:14;4.22;;;2.20;;
65684;SDS011;52405;50.844;-1.062;2023-03-01T16:10:40;2.67;;;1.40;;
65684;SDS011;52405;50.844;-1.062;2023-03-01T16:13:09;5.07;;;1.38;;
65684;SDS011;52405;50.844;-1.062;2023-03-01T16:15:38;7.80;;;2.22;;
65684;SDS011;52405;50.844;-1.062;2023-03-01T16:18:05;4.15;;;1.50;;
65684;SDS011;52405;50.844;-1.062;2023-03-01T16:20:33;4.43;;;2.20;;
65684;SDS011;52405;50.844;-1.062;2023-03-01T16:23:02;3.22;;;2.03;;
65684;SDS011;52405;50.844;-1.062;2023-03-01T16:25:31;2.53;;;2.00;;
65684;SDS011;52405;50.844;-1.062;2023-03-01T16:27:58;6.90;;;3.33;;
65684;SDS011;52405;50.844;-1.062;2023-03-01T16:30:25;3.85;;;2.67;;
65684;SDS011;52405;50.844;-1.062;2023-03-01T16:32:51;2.67;;;2.35;;
65684;SDS011;52405;50.844;-1.062;2023-03-01T16:35:18;4.15;;;2.28;;
65684;SDS011;52405;50.844;-1.062;2023-03-01T16:37:45;3.90;;;2.08;;
65684;SDS011;52405;50.844;-1.062;2023-03-01T16:40:23;4.55;;;2.42;;
65684;SDS011;52405;50.844;-1.062;2023-03-01T16:42:52;5.97;;;2.40;;
65684;SDS011;52405;50.844;-1.062;2023-03-01T16:45:18;6.68;;;2.65;;
65684;SDS011;52405;50.844;-1.062;2023-03-01T16:47:46;3.15;;;2.42;;
65684;SDS011;52405;50.844;-1.062;2023-03-01T16:50:11;4.82;;;2.85;;
65684;SDS011;52405;50.844;-1.062;2023-03-01T16:52:39;8.30;;;2.90;;
65684;SDS011;52405;50.844;-1.062;2023-03-01T16:55:05;4.65;;;2.72;;
65684;SDS011;52405;50.844;-1.062;2023-03-01T16:57:34;2.97;;;2.22;;
65684;SDS011;52405;50.844;-1.062;2023-03-01T17:00:01;5.43;;;2.47;;
65684;SDS011;52405;50.844;-1.062;2023-03-01T17:02:29;5.57;;;2.30;;
65684;SDS011;52405;50.844;-1.062;2023-03-01T17:04:56;2.67;;;2.40;;
65684;SDS011;52405;50.844;-1.062;2023-03-01T17:07:22;6.20;;;2.83;;